Time;durP1;ratioP1;P1;durP2;ratioP2;P2;SDS_P1;SDS_P2;PMS_P1;PMS_P2;Temp;Humidity;BMP_temperature;BMP_pressure;BME280_temperature;BME280_humidity;BME280_pressure;Samples;Min_cycle;Max_cycle;Signal;HPM_P1;HPM_P2
2022/01/06 00:00:45;;;;;;;10.20;9.20;;;3.70;99.90;;;;;;5034015;28;20245;-68
2022/01/06 00:03:10;;;;;;;15.77;9.70;;;3.70;99.90;;;;;;5033367;28;20211;-68
2022/01/06 00:05:37;;;;;;;8.83;8.33;;;3.70;99.90;;;;;;5034343;28;20187;-68
2022/01/06 00:08:03;;;;;;;10.23;8.13;;;3.60;99.90;;;;;;5032886;28;20195;-65
2022/01/06 00:10:30;;;;;;;16.00;10.27;;;3.60;99.90;;;;;;5033943;28;20250;-68
2022/01/06 00:16:30;;;;;;;9.93;9.10;;;3.60;99.90;;;;;;5033868;28;20664;-68
2022/01/06 00:23:06;;;;;;;21.30;9.37;;;3.60;99.90;;;;;;5015966;28;20200;-67
2022/01/06 00:23:47;;;;;;;10.33;8.93;;;3.50;99.90;;;;;;5032984;28;20221;-67
2022/01/06 00:26:13;;;;;;;11.50;10.53;;;3.50;99.90;;;;;;5033436;28;20649;-67
2022/01/06 00:28:38;;;;;;;17.30;9.43;;;3.50;99.90;;;;;;5033481;28;20218;-67
2022/01/06 00:31:05;;;;;;;13.83;9.17;;;3.50;99.90;;;;;;5033543;28;20187;-68
2022/01/06 00:33:32;;;;;;;17.23;10.33;;;3.50;99.90;;;;;;5033252;28;20198;-67
2022/01/06 00:35:58;;;;;;;11.73;9.60;;;3.50;99.90;;;;;;5033304;28;20180;-67
2022/01/06 00:38:25;;;;;;;8.93;8.07;;;3.50;99.90;;;;;;5033213;28;20223;-67
2022/01/06 00:40:51;;;;;;;8.63;7.97;;;3.50;99.90;;;;;;5033327;28;20644;-67
2022/01/06 00:43:17;;;;;;;8.63;8.00;;;3.60;99.90;;;;;;5032585;28;20310;-67
2022/01/06 00:45:42;;;;;;;13.60;7.57;;;3.60;99.90;;;;;;5033269;28;20274;-67
2022/01/06 00:48:11;;;;;;;8.80;7.57;;;3.50;99.90;;;;;;5031466;28;20214;-67
2022/01/06 00:50:39;;;;;;;9.63;8.37;;;3.60;99.90;;;;;;5032951;28;20560;-67
2022/01/06 00:53:05;;;;;;;16.93;9.30;;;3.50;99.90;;;;;;5032299;28;20191;-67
2022/01/06 00:55:32;;;;;;;8.33;7.53;;;3.50;99.90;;;;;;5031475;28;20695;-67
2022/01/06 00:57:58;;;;;;;11.53;8.67;;;3.50;99.90;;;;;;5032188;28;20210;-68
2022/01/06 01:00:27;;;;;;;8.30;7.60;;;3.50;99.90;;;;;;5032574;28;20207;-68
2022/01/06 01:02:53;;;;;;;10.97;7.67;;;3.50;99.90;;;;;;5032650;28;20198;-68
2022/01/06 01:05:19;;;;;;;8.03;7.47;;;3.50;99.90;;;;;;5031116;28;20195;-67
2022/01/06 01:07:45;;;;;;;8.60;7.47;;;3.50;99.90;;;;;;5031598;28;20270;-68
2022/01/06 01:10:12;;;;;;;7.57;6.87;;;3.50;99.90;;;;;;5031182;28;20222;-67
2022/01/06 01:12:37;;;;;;;12.40;7.10;;;3.50;99.90;;;;;;5032389;28;20192;-68
2022/01/06 01:15:08;;;;;;;6.83;6.17;;;3.50;99.90;;;;;;5032462;28;20180;-67
2022/01/06 01:17:34;;;;;;;9.83;7.43;;;3.50;99.90;;;;;;5031439;28;20199;-67
2022/01/06 01:20:02;;;;;;;14.77;8.90;;;3.50;99.90;;;;;;5032415;28;20194;-67
2022/01/06 01:22:27;;;;;;;8.13;7.37;;;3.50;99.90;;;;;;5031701;28;20207;-67
2022/01/06 01:24:53;;;;;;;8.90;8.20;;;3.50;99.90;;;;;;5031260;28;20178;-68
2022/01/06 01:27:23;;;;;;;6.57;6.27;;;3.60;99.90;;;;;;5030815;28;20579;-67
2022/01/06 01:30:03;;;;;;;10.43;8.03;;;3.50;99.90;;;;;;5032342;28;20199;-67
2022/01/06 01:32:35;;;;;;;7.60;7.03;;;3.50;99.90;;;;;;5031807;28;20793;-67
2022/01/06 01:35:02;;;;;;;7.73;7.13;;;3.50;99.90;;;;;;5030979;28;20616;-67
2022/01/06 01:37:29;;;;;;;9.07;7.37;;;3.40;99.90;;;;;;5031892;28;20195;-67
2022/01/06 01:39:55;;;;;;;8.00;7.40;;;3.40;99.90;;;;;;5032114;28;20185;-67
2022/01/06 01:42:22;;;;;;;9.57;8.73;;;3.30;99.90;;;;;;5031372;28;20199;-67
2022/01/06 01:44:50;;;;;;;10.17;8.70;;;3.30;99.90;;;;;;5027584;28;20251;-67
2022/01/06 01:47:23;;;;;;;15.83;9.53;;;3.30;99.90;;;;;;5012064;28;20252;-67
2022/01/06 01:49:53;;;;;;;9.20;8.30;;;3.30;99.90;;;;;;5014641;28;20172;-67
2022/01/06 01:52:19;;;;;;;9.03;7.63;;;3.20;99.90;;;;;;5031353;28;20179;-67
2022/01/06 01:54:44;;;;;;;8.37;7.63;;;3.20;99.90;;;;;;5031582;28;20254;-67
2022/01/06 01:57:10;;;;;;;8.60;8.10;;;3.30;99.90;;;;;;5031561;28;20202;-66
2022/01/06 01:59:36;;;;;;;9.10;8.20;;;3.30;99.90;;;;;;5031863;28;20180;-67
2022/01/06 02:02:02;;;;;;;10.20;9.50;;;3.30;99.90;;;;;;5031240;28;20214;-67
2022/01/06 02:04:28;;;;;;;8.70;8.20;;;3.30;99.90;;;;;;5031649;28;20207;-67
2022/01/06 02:06:54;;;;;;;9.93;9.07;;;3.30;99.90;;;;;;5030686;28;20195;-67
2022/01/06 02:09:19;;;;;;;9.37;8.73;;;3.30;99.90;;;;;;5030366;28;20549;-67
2022/01/06 02:11:45;;;;;;;9.47;8.57;;;3.20;99.90;;;;;;5031647;28;20210;-68
2022/01/06 02:14:11;;;;;;;14.73;9.53;;;3.20;99.90;;;;;;5031548;28;20168;-67
2022/01/06 02:16:39;;;;;;;10.40;9.40;;;3.20;99.90;;;;;;5031651;28;20554;-67
2022/01/06 02:19:05;;;;;;;12.67;10.67;;;3.20;99.90;;;;;;5031417;28;20175;-67
2022/01/06 02:21:31;;;;;;;12.33;11.10;;;3.20;99.90;;;;;;5031834;28;20254;-67
2022/01/06 02:23:56;;;;;;;10.93;9.27;;;3.10;99.90;;;;;;5031270;28;20203;-68
2022/01/06 02:26:22;;;;;;;10.00;9.40;;;3.10;99.90;;;;;;5031656;28;20168;-68
2022/01/06 02:28:48;;;;;;;12.00;10.87;;;3.10;99.90;;;;;;5031333;28;20389;-68
2022/01/06 02:31:13;;;;;;;11.93;10.97;;;3.10;99.90;;;;;;5030209;28;20168;-68
2022/01/06 02:33:39;;;;;;;12.57;11.30;;;3.10;99.90;;;;;;5031232;28;20188;-67
2022/01/06 02:36:05;;;;;;;11.47;10.27;;;3.10;99.90;;;;;;5031348;28;20764;-67
2022/01/06 02:38:31;;;;;;;13.17;11.63;;;3.10;99.90;;;;;;5031126;28;20241;-67
2022/01/06 02:40:56;;;;;;;12.60;11.40;;;3.00;99.90;;;;;;5031424;28;20193;-67
2022/01/06 02:43:24;;;;;;;10.47;9.47;;;3.00;99.90;;;;;;5030704;28;20202;-67
2022/01/06 02:45:51;;;;;;;10.50;9.63;;;3.00;99.90;;;;;;5031371;28;20164;-67
2022/01/06 02:48:17;;;;;;;9.83;9.23;;;3.00;99.90;;;;;;5030639;28;20282;-66
2022/01/06 02:50:46;;;;;;;10.33;9.60;;;3.10;99.90;;;;;;5030679;28;20262;-67
2022/01/06 02:53:13;;;;;;;22.87;10.47;;;3.10;99.90;;;;;;5030927;28;20256;-67
2022/01/06 02:55:47;;;;;;;19.73;10.43;;;3.10;99.90;;;;;;5031126;28;20608;-67
2022/01/06 02:58:13;;;;;;;9.57;9.07;;;3.10;99.90;;;;;;5031217;28;20217;-67
2022/01/06 03:00:39;;;;;;;10.10;9.27;;;3.10;99.90;;;;;;5030827;28;20179;-67
2022/01/06 03:03:05;;;;;;;17.13;10.00;;;3.10;99.90;;;;;;5030800;28;20207;-67
2022/01/06 03:05:30;;;;;;;10.30;9.30;;;3.10;99.90;;;;;;5030988;28;20565;-67
2022/01/06 03:07:56;;;;;;;17.17;9.40;;;3.10;99.90;;;;;;5030466;28;20188;-67
2022/01/06 03:10:23;;;;;;;10.67;9.37;;;3.20;99.90;;;;;;5031110;28;20588;-67
2022/01/06 03:12:49;;;;;;;10.07;9.30;;;3.20;99.90;;;;;;5030833;28;20197;-67
2022/01/06 03:15:20;;;;;;;21.90;8.83;;;3.30;99.90;;;;;;5030906;28;20179;-67
2022/01/06 03:17:49;;;;;;;8.40;7.70;;;3.40;99.90;;;;;;5031296;28;20252;-66
2022/01/06 03:20:16;;;;;;;21.37;11.07;;;3.40;99.90;;;;;;5030817;28;20183;-67
2022/01/06 03:22:42;;;;;;;10.63;9.47;;;3.40;99.90;;;;;;5029287;28;20555;-67
2022/01/06 03:25:10;;;;;;;8.00;7.20;;;3.50;99.90;;;;;;5030748;28;20259;-67
2022/01/06 03:27:36;;;;;;;7.83;7.43;;;3.50;99.90;;;;;;5031022;28;20267;-66
2022/01/06 03:30:04;;;;;;;14.73;8.37;;;3.60;99.90;;;;;;5032610;28;20650;-66
2022/01/06 03:32:29;;;;;;;9.20;8.40;;;3.60;99.90;;;;;;5034423;28;20183;-66
2022/01/06 03:34:55;;;;;;;13.97;8.90;;;3.70;99.90;;;;;;5034209;28;20209;-66
2022/01/06 03:37:21;;;;;;;12.30;8.33;;;3.70;99.90;;;;;;5033006;28;20558;-67
2022/01/06 03:39:47;;;;;;;10.77;8.70;;;3.70;99.90;;;;;;5034246;28;20351;-67
2022/01/06 03:42:13;;;;;;;8.93;7.87;;;3.70;99.90;;;;;;5034242;28;20207;-67
2022/01/06 03:44:39;;;;;;;8.93;8.00;;;3.60;99.90;;;;;;5034052;28;20186;-67
2022/01/06 03:47:05;;;;;;;8.07;7.57;;;3.50;99.90;;;;;;5032869;28;20290;-66
2022/01/06 03:49:31;;;;;;;11.70;9.73;;;3.30;99.90;;;;;;5033917;28;20176;-67
2022/01/06 03:51:56;;;;;;;14.03;9.63;;;3.30;99.90;;;;;;5034145;28;20710;-67
2022/01/06 03:54:22;;;;;;;11.10;10.10;;;3.20;99.90;;;;;;5033915;28;20318;-66
2022/01/06 03:56:49;;;;;;;11.43;9.80;;;3.20;99.90;;;;;;5033937;28;20215;-67
2022/01/06 03:59:18;;;;;;;17.07;10.43;;;3.20;99.90;;;;;;5033802;28;20187;-66
2022/01/06 04:01:44;;;;;;;14.43;9.90;;;3.20;99.90;;;;;;5034113;28;20596;-67
2022/01/06 04:04:11;;;;;;;10.50;8.93;;;3.10;99.90;;;;;;5033237;28;20592;-66
2022/01/06 04:06:37;;;;;;;12.70;9.83;;;3.10;99.90;;;;;;5033421;28;20191;-67
2022/01/06 04:09:03;;;;;;;11.27;10.23;;;3.00;99.90;;;;;;5033753;28;20176;-67
2022/01/06 04:11:29;;;;;;;19.33;10.97;;;3.00;99.90;;;;;;5033866;28;20175;-68
2022/01/06 04:13:55;;;;;;;11.70;10.50;;;3.00;99.90;;;;;;5032274;28;20187;-68
2022/01/06 04:16:21;;;;;;;11.87;10.83;;;2.90;99.90;;;;;;5033812;28;20262;-68
2022/01/06 04:18:47;;;;;;;12.13;11.07;;;2.80;99.90;;;;;;5033405;28;20178;-67
2022/01/06 04:21:12;;;;;;;11.70;10.67;;;2.80;99.90;;;;;;5033669;28;20180;-67
2022/01/06 04:23:38;;;;;;;14.30;10.77;;;2.80;99.90;;;;;;5033302;28;20203;-68
2022/01/06 04:26:03;;;;;;;11.87;10.87;;;2.70;99.90;;;;;;5033895;28;20171;-68
2022/01/06 04:28:29;;;;;;;17.30;10.47;;;2.70;99.90;;;;;;5033507;28;20226;-67
2022/01/06 04:30:55;;;;;;;14.03;10.40;;;2.60;99.90;;;;;;5033371;28;20183;-67
2022/01/06 04:33:21;;;;;;;11.53;10.43;;;2.60;99.90;;;;;;5033173;28;20171;-68
2022/01/06 04:35:46;;;;;;;9.73;8.90;;;2.50;99.90;;;;;;5033462;28;20194;-68
2022/01/06 04:38:12;;;;;;;10.03;9.07;;;2.50;99.90;;;;;;5033413;28;20199;-67
2022/01/06 04:40:38;;;;;;;12.10;9.43;;;2.40;99.90;;;;;;5032488;28;20169;-68
2022/01/06 04:43:05;;;;;;;20.93;8.43;;;2.50;99.90;;;;;;5032936;28;20210;-68
2022/01/06 04:45:31;;;;;;;18.53;9.00;;;2.40;99.90;;;;;;5033216;28;20179;-68
2022/01/06 04:47:57;;;;;;;9.30;8.50;;;2.40;99.90;;;;;;5033368;28;20187;-68
2022/01/06 04:50:22;;;;;;;8.53;7.70;;;2.40;99.90;;;;;;5033004;28;20179;-67
2022/01/06 04:52:48;;;;;;;13.80;8.77;;;2.30;99.90;;;;;;5031542;28;20548;-68
2022/01/06 04:55:14;;;;;;;9.03;8.10;;;2.30;99.90;;;;;;5032828;28;20180;-67
2022/01/06 04:57:39;;;;;;;14.27;8.37;;;2.30;99.90;;;;;;5033109;28;20207;-67
2022/01/06 05:00:06;;;;;;;16.93;8.40;;;2.30;99.90;;;;;;5032995;28;20187;-68
2022/01/06 05:02:32;;;;;;;11.73;8.57;;;2.20;99.90;;;;;;5032603;28;20286;-67
2022/01/06 05:04:57;;;;;;;11.87;8.17;;;2.20;99.90;;;;;;5032723;28;20253;-67
2022/01/06 05:07:23;;;;;;;9.07;8.27;;;2.20;99.90;;;;;;5032174;28;20195;-67
2022/01/06 05:09:48;;;;;;;8.53;7.70;;;2.10;99.90;;;;;;5032814;28;20179;-68
2022/01/06 05:12:14;;;;;;;7.70;7.20;;;2.10;99.90;;;;;;5032601;28;20164;-67
2022/01/06 05:14:40;;;;;;;8.63;7.87;;;2.10;99.90;;;;;;5032700;28;20233;-67
2022/01/06 05:17:07;;;;;;;11.03;8.60;;;2.10;99.90;;;;;;5031488;28;20238;-68
2022/01/06 05:19:32;;;;;;;13.43;8.60;;;2.00;99.90;;;;;;5032809;28;20229;-67
2022/01/06 05:21:59;;;;;;;9.00;8.30;;;2.00;99.90;;;;;;5031513;28;20167;-67
2022/01/06 05:24:25;;;;;;;10.37;9.27;;;2.00;99.90;;;;;;5032443;28;20196;-67
2022/01/06 05:26:51;;;;;;;12.27;9.00;;;2.10;99.90;;;;;;5030941;28;20191;-68
2022/01/06 05:29:17;;;;;;;9.83;9.00;;;2.10;99.90;;;;;;5032729;28;20187;-68
2022/01/06 05:31:42;;;;;;;11.10;10.03;;;2.10;99.90;;;;;;5032676;28;20206;-67
2022/01/06 05:34:08;;;;;;;10.03;9.13;;;2.10;99.90;;;;;;5032160;28;20176;-65
2022/01/06 05:36:34;;;;;;;9.43;8.63;;;2.10;99.90;;;;;;5032149;28;20210;-67
2022/01/06 05:39:00;;;;;;;14.30;8.50;;;2.00;99.90;;;;;;5031870;28;20194;-66
2022/01/06 05:41:26;;;;;;;11.00;7.30;;;2.00;99.90;;;;;;5032096;28;20183;-66
2022/01/06 05:43:52;;;;;;;12.93;9.63;;;2.00;99.90;;;;;;5031521;28;20214;-66
2022/01/06 05:46:18;;;;;;;17.37;9.53;;;2.00;99.90;;;;;;5031873;28;20171;-66
2022/01/06 05:48:45;;;;;;;15.37;9.10;;;2.00;99.90;;;;;;5031449;28;20182;-66
2022/01/06 05:51:11;;;;;;;9.87;8.87;;;2.00;99.90;;;;;;5030133;28;20203;-67
2022/01/06 05:53:37;;;;;;;9.07;8.23;;;2.00;99.90;;;;;;5011332;28;20262;-67
2022/01/06 05:56:03;;;;;;;13.53;8.37;;;2.00;99.90;;;;;;5023054;28;20179;-65
2022/01/06 05:58:29;;;;;;;14.00;8.27;;;1.90;99.90;;;;;;5031853;28;20239;-68
2022/01/06 06:00:54;;;;;;;11.77;8.63;;;1.90;99.90;;;;;;5031644;28;20277;-66
2022/01/06 06:03:20;;;;;;;16.10;9.90;;;1.90;99.90;;;;;;5031431;28;20592;-65
2022/01/06 06:05:46;;;;;;;11.07;8.80;;;2.00;99.90;;;;;;5030358;28;20267;-66
2022/01/06 06:08:11;;;;;;;8.87;8.10;;;1.90;99.90;;;;;;5031563;28;20218;-67
2022/01/06 06:10:37;;;;;;;9.67;8.70;;;1.90;99.90;;;;;;5031545;28;20205;-66
2022/01/06 06:13:03;;;;;;;10.07;9.13;;;1.80;99.90;;;;;;5031243;28;20177;-65
2022/01/06 06:15:34;;;;;;;8.80;8.20;;;1.80;99.90;;;;;;5031563;28;20195;-65
2022/01/06 06:18:04;;;;;;;12.60;8.87;;;1.80;99.90;;;;;;5031600;28;20188;-67
2022/01/06 06:20:29;;;;;;;12.77;8.23;;;1.80;99.90;;;;;;5031358;28;20175;-67
2022/01/06 06:22:56;;;;;;;15.47;9.40;;;1.70;99.90;;;;;;5030914;28;20771;-66
2022/01/06 06:25:21;;;;;;;17.07;8.67;;;1.80;99.90;;;;;;5011733;28;20598;-65
2022/01/06 06:27:47;;;;;;;9.40;8.60;;;1.70;99.90;;;;;;5011775;28;20196;-66
2022/01/06 06:30:13;;;;;;;12.10;9.43;;;1.70;99.90;;;;;;5030066;28;20661;-65
2022/01/06 06:32:38;;;;;;;10.40;9.40;;;1.80;99.90;;;;;;5031196;28;20256;-66
2022/01/06 06:35:05;;;;;;;12.23;9.50;;;1.80;99.90;;;;;;5031215;28;20183;-66
2022/01/06 06:37:30;;;;;;;14.63;9.67;;;1.80;99.90;;;;;;5031322;28;20192;-66
2022/01/06 06:39:57;;;;;;;14.50;8.53;;;1.80;99.90;;;;;;5031216;28;20233;-66
2022/01/06 06:42:26;;;;;;;17.80;9.23;;;1.80;99.90;;;;;;5030935;28;20263;-66
2022/01/06 06:44:52;;;;;;;13.73;9.37;;;1.80;99.90;;;;;;5031051;28;20546;-65
2022/01/06 06:47:18;;;;;;;12.93;10.13;;;1.80;99.90;;;;;;5031204;28;20192;-66
2022/01/06 06:49:43;;;;;;;15.07;10.63;;;1.80;99.90;;;;;;5031067;28;20254;-66
2022/01/06 06:52:09;;;;;;;22.03;10.87;;;1.80;99.90;;;;;;5030372;28;20179;-67
2022/01/06 06:54:35;;;;;;;14.80;10.20;;;1.80;99.90;;;;;;5031220;28;20255;-65
2022/01/06 06:57:01;;;;;;;19.20;11.60;;;1.90;99.90;;;;;;5031170;28;20346;-67
2022/01/06 06:59:26;;;;;;;11.97;10.83;;;1.90;99.90;;;;;;5030413;28;20241;-66
2022/01/06 07:01:52;;;;;;;26.00;12.50;;;1.90;99.90;;;;;;5029669;28;20549;-66
2022/01/06 07:04:17;;;;;;;20.10;13.90;;;1.90;99.90;;;;;;5031756;28;20206;-66
2022/01/06 07:06:43;;;;;;;11.80;10.70;;;1.90;99.90;;;;;;5032674;28;20199;-66
2022/01/06 07:09:09;;;;;;;14.30;10.73;;;1.90;99.90;;;;;;5034769;28;20164;-68
2022/01/06 07:11:34;;;;;;;15.63;11.13;;;2.00;99.90;;;;;;5034812;28;20175;-67
2022/01/06 07:14:00;;;;;;;16.67;10.83;;;2.00;99.90;;;;;;5034490;28;20176;-66
2022/01/06 07:16:26;;;;;;;17.40;11.57;;;2.00;99.90;;;;;;5034289;28;20203;-66
2022/01/06 07:18:51;;;;;;;19.60;12.17;;;2.00;99.90;;;;;;5013467;28;20178;-66
2022/01/06 07:21:17;;;;;;;17.90;11.90;;;2.10;99.90;;;;;;5030411;28;20190;-66
2022/01/06 07:23:42;;;;;;;19.63;12.40;;;2.10;99.90;;;;;;5033607;28;20207;-66
2022/01/06 07:26:08;;;;;;;16.80;12.17;;;2.20;99.90;;;;;;5032806;28;20672;-66
2022/01/06 07:28:34;;;;;;;21.83;11.67;;;2.20;99.90;;;;;;5034367;28;20179;-67
2022/01/06 07:31:00;;;;;;;12.30;11.10;;;2.20;99.90;;;;;;5034078;28;20180;-66
2022/01/06 07:33:25;;;;;;;16.40;11.30;;;2.30;99.90;;;;;;5032743;28;20186;-65
2022/01/06 07:35:51;;;;;;;12.97;11.27;;;2.20;99.90;;;;;;5032928;28;20652;-65
2022/01/06 07:38:17;;;;;;;14.13;12.70;;;2.30;99.90;;;;;;5034109;28;20270;-65
2022/01/06 07:40:43;;;;;;;15.60;11.60;;;2.30;99.90;;;;;;5034105;28;20186;-66
2022/01/06 07:43:10;;;;;;;14.43;12.40;;;2.30;99.90;;;;;;5033930;28;20195;-68
2022/01/06 07:45:35;;;;;;;16.37;12.93;;;2.30;99.90;;;;;;5034244;28;20186;-68
2022/01/06 07:48:03;;;;;;;16.30;11.20;;;2.30;99.90;;;;;;5034183;28;20188;-67
2022/01/06 07:50:31;;;;;;;14.70;12.53;;;2.30;99.90;;;;;;5035207;28;20618;-68
2022/01/06 07:52:57;;;;;;;19.20;13.43;;;2.30;99.90;;;;;;5033998;28;20171;-68
2022/01/06 07:55:23;;;;;;;24.13;13.10;;;2.30;99.90;;;;;;5033927;28;20178;-65
2022/01/06 07:57:50;;;;;;;14.37;11.57;;;2.40;99.90;;;;;;5033580;28;20275;-68
2022/01/06 08:00:17;;;;;;;13.33;11.93;;;2.40;99.90;;;;;;5033977;28;20179;-68
2022/01/06 08:02:44;;;;;;;17.27;11.97;;;2.40;99.90;;;;;;5033382;28;20635;-67
2022/01/06 08:05:11;;;;;;;14.80;12.23;;;2.50;99.90;;;;;;5033987;28;20172;-66
2022/01/06 08:07:37;;;;;;;21.43;13.33;;;2.50;99.90;;;;;;5033160;28;20553;-66
2022/01/06 08:10:03;;;;;;;21.23;14.50;;;2.60;99.90;;;;;;5033575;28;20270;-65
2022/01/06 08:12:29;;;;;;;20.77;15.53;;;2.60;99.90;;;;;;5032143;28;20184;-67
2022/01/06 08:14:55;;;;;;;25.37;15.00;;;2.70;99.90;;;;;;5033113;28;20210;-66
2022/01/06 08:17:21;;;;;;;22.23;15.50;;;2.70;99.90;;;;;;5033171;28;20199;-66
2022/01/06 08:19:47;;;;;;;16.03;14.43;;;2.80;99.90;;;;;;5033713;28;20469;-68
2022/01/06 08:22:13;;;;;;;16.10;14.60;;;2.80;99.90;;;;;;5033011;28;20175;-68
2022/01/06 08:24:39;;;;;;;18.97;14.53;;;2.90;99.90;;;;;;5033564;28;20210;-68
2022/01/06 08:27:08;;;;;;;18.13;14.97;;;2.90;99.90;;;;;;5033033;28;20195;-67
2022/01/06 08:29:39;;;;;;;24.93;14.57;;;3.00;99.90;;;;;;5033344;28;20175;-67
2022/01/06 08:32:06;;;;;;;19.50;14.10;;;3.00;99.90;;;;;;5032845;28;20655;-66
2022/01/06 08:34:31;;;;;;;14.47;13.00;;;3.10;99.90;;;;;;5033258;28;20579;-65
2022/01/06 08:36:57;;;;;;;17.33;12.17;;;3.10;99.90;;;;;;5031595;28;20203;-65
2022/01/06 08:39:23;;;;;;;15.43;12.87;;;3.10;99.90;;;;;;5033053;28;20547;-65
2022/01/06 08:41:50;;;;;;;19.50;13.30;;;3.10;99.90;;;;;;5032993;28;20202;-65
2022/01/06 08:44:16;;;;;;;19.53;11.57;;;3.10;99.90;;;;;;5032577;28;20208;-65
2022/01/06 08:46:42;;;;;;;20.60;12.13;;;3.10;99.90;;;;;;5032939;28;20222;-66
2022/01/06 08:49:11;;;;;;;21.43;12.43;;;3.10;99.90;;;;;;5032554;28;20220;-65
2022/01/06 08:51:38;;;;;;;17.90;13.03;;;3.10;99.90;;;;;;5031669;28;20184;-65
2022/01/06 08:54:04;;;;;;;14.60;12.67;;;3.10;99.90;;;;;;5032307;28;20548;-64
2022/01/06 08:56:29;;;;;;;15.90;11.80;;;3.10;99.90;;;;;;5032733;28;20218;-64
2022/01/06 08:58:55;;;;;;;14.83;11.83;;;3.10;99.90;;;;;;5031710;28;20175;-66
2022/01/06 09:01:21;;;;;;;17.87;13.87;;;3.10;99.90;;;;;;5032451;28;20179;-66
2022/01/06 09:03:47;;;;;;;19.37;14.37;;;3.10;99.90;;;;;;5032395;28;20203;-66
2022/01/06 09:06:12;;;;;;;20.07;13.13;;;3.30;99.90;;;;;;5031887;28;20255;-66
2022/01/06 09:08:38;;;;;;;21.17;12.00;;;3.50;99.90;;;;;;5031217;28;20175;-66
2022/01/06 09:11:04;;;;;;;20.47;12.43;;;3.80;99.90;;;;;;5031012;28;20172;-66
2022/01/06 09:13:29;;;;;;;26.03;12.77;;;4.10;99.90;;;;;;5031660;28;20528;-66
2022/01/06 09:15:55;;;;;;;15.13;11.83;;;4.40;99.90;;;;;;5031161;28;20196;-67
2022/01/06 09:18:21;;;;;;;14.93;11.57;;;4.60;99.90;;;;;;5032314;28;20222;-66
2022/01/06 09:20:47;;;;;;;13.43;11.00;;;4.80;99.90;;;;;;5032417;28;20171;-66
2022/01/06 09:23:13;;;;;;;21.23;9.90;;;4.80;99.90;;;;;;5031715;28;20214;-66
2022/01/06 09:25:38;;;;;;;11.73;10.47;;;4.80;99.90;;;;;;5032317;28;20255;-66
2022/01/06 09:28:04;;;;;;;11.53;9.90;;;4.50;99.90;;;;;;5031621;28;20307;-66
2022/01/06 09:30:30;;;;;;;16.37;11.60;;;4.40;99.90;;;;;;5032323;28;20178;-65
2022/01/06 09:32:55;;;;;;;12.73;10.67;;;4.20;99.90;;;;;;5031674;28;20550;-66
2022/01/06 09:35:21;;;;;;;17.00;11.17;;;4.20;99.90;;;;;;5030717;28;20179;-65
2022/01/06 09:37:47;;;;;;;15.77;11.23;;;4.20;99.90;;;;;;5031961;28;20386;-65
2022/01/06 09:40:13;;;;;;;13.57;10.70;;;4.10;99.90;;;;;;5030591;28;20185;-65
2022/01/06 09:42:42;;;;;;;12.50;11.20;;;4.10;99.90;;;;;;5031560;28;20229;-65
2022/01/06 09:45:09;;;;;;;18.33;11.40;;;4.00;99.90;;;;;;5030548;28;20262;-65
2022/01/06 09:47:37;;;;;;;17.53;11.63;;;3.90;99.90;;;;;;5031948;28;20270;-65
2022/01/06 09:50:03;;;;;;;13.00;10.27;;;3.90;99.90;;;;;;5031630;28;20676;-68
2022/01/06 09:52:29;;;;;;;16.70;11.77;;;3.80;99.90;;;;;;5025165;28;20214;-68
2022/01/06 09:54:55;;;;;;;18.73;15.47;;;3.70;99.90;;;;;;5031287;28;20199;-68
2022/01/06 09:57:20;;;;;;;13.97;12.07;;;3.70;99.90;;;;;;5030682;28;20218;-67
2022/01/06 09:59:48;;;;;;;12.93;11.30;;;3.80;99.90;;;;;;5031728;28;20661;-67
2022/01/06 10:02:17;;;;;;;18.57;11.30;;;4.10;99.90;;;;;;5031074;28;20172;-66
2022/01/06 10:04:58;;;;;;;17.77;12.30;;;4.20;99.90;;;;;;5031687;28;20234;-66
2022/01/06 10:07:24;;;;;;;14.67;11.40;;;4.40;99.90;;;;;;5031502;28;20199;-66
2022/01/06 10:09:50;;;;;;;12.87;10.63;;;4.70;99.90;;;;;;5031564;28;20186;-68
2022/01/06 10:12:16;;;;;;;13.67;9.83;;;5.00;99.90;;;;;;5031148;28;20182;-67
2022/01/06 10:14:45;;;;;;;11.90;10.77;;;5.20;99.90;;;;;;5031019;28;20171;-66
2022/01/06 10:17:14;;;;;;;18.03;11.03;;;5.30;99.90;;;;;;5031124;28;20257;-66
2022/01/06 10:19:41;;;;;;;12.20;11.00;;;5.10;99.90;;;;;;5031517;28;20187;-65
2022/01/06 10:22:18;;;;;;;11.30;10.10;;;5.00;99.90;;;;;;5031139;28;20172;-67
2022/01/06 10:24:46;;;;;;;12.67;10.13;;;5.00;99.90;;;;;;5031206;28;20263;-66
2022/01/06 10:27:14;;;;;;;13.30;11.43;;;5.00;99.90;;;;;;5031094;28;20294;-66
2022/01/06 10:29:48;;;;;;;11.97;10.83;;;5.00;99.90;;;;;;5031379;28;20194;-66
2022/01/06 10:32:15;;;;;;;15.33;10.27;;;5.00;99.90;;;;;;5029623;28;20608;-66
2022/01/06 10:34:48;;;;;;;13.60;11.17;;;5.00;99.90;;;;;;5030062;28;20182;-66
2022/01/06 10:37:19;;;;;;;15.60;10.40;;;5.10;99.90;;;;;;5030847;28;20199;-67
2022/01/06 10:39:46;;;;;;;14.80;11.37;;;5.20;99.90;;;;;;5032922;28;20202;-67
2022/01/06 10:42:13;;;;;;;13.27;11.07;;;5.30;99.90;;;;;;5035070;28;20175;-65
2022/01/06 10:44:56;;;;;;;13.30;9.97;;;5.40;99.90;;;;;;5035276;28;20207;-66
2022/01/06 10:47:31;;;;;;;13.97;10.70;;;5.50;99.90;;;;;;5035272;28;20573;-66
2022/01/06 10:50:15;;;;;;;11.30;10.20;;;5.50;99.90;;;;;;5035181;28;20171;-66
2022/01/06 10:52:43;;;;;;;10.37;9.37;;;5.40;99.90;;;;;;5035039;28;20168;-66
2022/01/06 10:55:09;;;;;;;10.83;9.73;;;5.30;99.90;;;;;;5034995;28;20630;-66
2022/01/06 10:57:35;;;;;;;18.87;10.50;;;5.20;99.90;;;;;;5034902;28;20291;-66
2022/01/06 11:00:00;;;;;;;10.40;9.20;;;5.30;99.90;;;;;;5035212;28;20176;-65
2022/01/06 11:02:26;;;;;;;13.63;10.60;;;5.30;99.90;;;;;;5034756;28;20183;-66
2022/01/06 11:04:51;;;;;;;12.03;9.80;;;5.30;99.90;;;;;;5034946;28;20172;-65
2022/01/06 11:07:18;;;;;;;11.77;9.97;;;5.20;99.90;;;;;;5033309;28;20214;-66
2022/01/06 11:09:48;;;;;;;19.23;10.30;;;5.30;99.90;;;;;;5024862;28;20211;-66
2022/01/06 11:12:27;;;;;;;12.13;10.13;;;5.40;99.90;;;;;;5024641;28;20581;-66
2022/01/06 11:14:53;;;;;;;26.17;12.10;;;5.40;99.90;;;;;;5033959;28;20183;-66
2022/01/06 11:17:21;;;;;;;13.20;10.23;;;5.40;99.90;;;;;;5033622;28;20202;-66
2022/01/06 11:19:51;;;;;;;14.57;10.00;;;5.40;99.90;;;;;;5017061;28;20267;-66
2022/01/06 11:22:23;;;;;;;11.33;10.23;;;5.40;99.90;;;;;;5021567;28;20188;-66
2022/01/06 11:25:03;;;;;;;12.17;11.13;;;5.30;99.90;;;;;;5034449;28;20258;-66
2022/01/06 11:27:33;;;;;;;14.70;11.83;;;5.30;99.90;;;;;;5034266;28;20191;-65
2022/01/06 11:30:14;;;;;;;17.87;10.43;;;5.30;99.90;;;;;;5034790;28;20179;-66
2022/01/06 11:32:41;;;;;;;18.77;11.77;;;5.40;99.90;;;;;;5032715;28;20224;-66
2022/01/06 11:35:11;;;;;;;13.57;11.47;;;5.50;99.90;;;;;;5034384;28;20221;-66
2022/01/06 11:37:49;;;;;;;16.93;11.20;;;5.60;99.90;;;;;;5033621;28;20225;-66
2022/01/06 11:40:40;;;;;;;17.10;11.37;;;5.80;99.90;;;;;;5014519;28;20191;-66
2022/01/06 11:43:06;;;;;;;16.47;11.30;;;5.80;99.90;;;;;;5026257;28;20211;-68
2022/01/06 11:45:32;;;;;;;13.13;11.67;;;5.90;99.90;;;;;;5034463;28;20188;-68
2022/01/06 11:48:07;;;;;;;12.40;10.33;;;6.00;99.90;;;;;;5033916;28;20208;-68
2022/01/06 11:50:38;;;;;;;14.50;10.87;;;6.10;99.90;;;;;;5033492;28;20185;-68
2022/01/06 11:53:04;;;;;;;10.90;9.80;;;6.10;99.90;;;;;;5033368;28;20322;-68
2022/01/06 11:55:36;;;;;;;35.43;18.80;;;6.10;99.90;;;;;;5033809;28;20270;-67
2022/01/06 11:58:31;;;;;;;43.10;20.70;;;6.10;99.90;;;;;;5029952;28;20223;-67
2022/01/06 12:01:12;;;;;;;35.20;18.43;;;6.20;99.90;;;;;;5020148;28;20191;-66
2022/01/06 12:03:46;;;;;;;15.47;13.63;;;6.20;99.90;;;;;;5032119;28;20211;-66
2022/01/06 12:06:25;;;;;;;16.67;11.73;;;6.20;99.90;;;;;;5033283;28;20656;-66
2022/01/06 12:08:51;;;;;;;18.23;12.43;;;6.20;99.90;;;;;;5033284;28;20175;-66
2022/01/06 12:11:24;;;;;;;16.53;13.37;;;6.20;99.90;;;;;;5033171;28;20629;-66
2022/01/06 12:13:51;;;;;;;20.77;11.60;;;6.30;99.90;;;;;;5033236;28;20203;-66
2022/01/06 12:16:29;;;;;;;14.63;11.93;;;6.40;99.90;;;;;;5032953;28;20180;-66
2022/01/06 12:18:55;;;;;;;16.23;12.47;;;6.50;99.90;;;;;;5033331;28;20184;-66
2022/01/06 12:21:22;;;;;;;14.50;12.23;;;6.70;99.90;;;;;;5032998;28;20195;-66
2022/01/06 12:23:59;;;;;;;17.03;11.43;;;6.60;99.90;;;;;;5032264;28;20289;-66
2022/01/06 12:26:25;;;;;;;18.00;11.33;;;6.80;99.90;;;;;;5033128;28;20184;-66
2022/01/06 12:28:50;;;;;;;12.63;11.40;;;7.20;99.90;;;;;;5030992;28;20167;-66
2022/01/06 12:31:22;;;;;;;13.50;10.77;;;7.60;99.90;;;;;;5018506;28;20190;-66
2022/01/06 12:33:49;;;;;;;17.93;10.70;;;8.20;99.90;;;;;;5031264;28;20179;-66
2022/01/06 12:36:20;;;;;;;21.47;13.63;;;8.50;99.90;;;;;;5032960;28;20575;-66
2022/01/06 12:38:46;;;;;;;20.17;11.70;;;8.40;99.90;;;;;;5032492;28;20182;-66
2022/01/06 12:41:12;;;;;;;12.67;10.50;;;8.40;99.90;;;;;;5031292;28;20195;-66
2022/01/06 12:43:40;;;;;;;10.60;9.67;;;8.20;99.90;;;;;;5032583;28;20290;-66
2022/01/06 12:46:30;;;;;;;11.33;9.63;;;8.10;99.90;;;;;;5033015;28;20623;-66
2022/01/06 12:48:56;;;;;;;11.40;10.13;;;8.00;99.90;;;;;;5032724;28;20203;-68